sensor_id;sensor_type;location;lat;lon;timestamp;temperature;humidity
54788;DHT22;59598;48.112;16.280;2023-04-15T00:00:26;3.70;99.90
54788;DHT22;59598;48.112;16.280;2023-04-15T00:03:01;3.80;99.90
54788;DHT22;59598;48.112;16.280;2023-04-15T00:05:35;3.70;99.90
54788;DHT22;59598;48.112;16.280;2023-04-15T00:08:06;3.70;99.90
54788;DHT22;59598;48.112;16.280;2023-04-15T00:10:42;3.70;99.90
54788;DHT22;59598;48.112;16.280;2023-04-15T00:13:16;3.70;99.90
54788;DHT22;59598;48.112;16.280;2023-04-15T00:15:49;3.70;99.90
54788;DHT22;59598;48.112;16.280;2023-04-15T00:18:26;3.80;99.90
54788;DHT22;59598;48.112;16.280;2023-04-15T00:20:57;3.80;99.90
54788;DHT22;59598;48.112;16.280;2023-04-15T00:23:37;3.70;99.90
54788;DHT22;59598;48.112;16.280;2023-04-15T00:26:11;3.60;99.90
54788;DHT22;59598;48.112;16.280;2023-04-15T00:28:47;3.60;99.90
54788;DHT22;59598;48.112;16.280;2023-04-15T00:31:23;3.60;99.90
54788;DHT22;59598;48.112;16.280;2023-04-15T00:33:59;3.50;99.90
54788;DHT22;59598;48.112;16.280;2023-04-15T00:36:33;3.50;99.90
54788;DHT22;59598;48.112;16.280;2023-04-15T00:39:07;3.40;99.90
54788;DHT22;59598;48.112;16.280;2023-04-15T00:41:39;3.50;99.90
54788;DHT22;59598;48.112;16.280;2023-04-15T00:44:13;3.50;99.90
54788;DHT22;59598;48.112;16.280;2023-04-15T00:46:46;3.40;99.90
54788;DHT22;59598;48.112;16.280;2023-04-15T00:49:21;3.40;99.90
54788;DHT22;59598;48.112;16.280;2023-04-15T00:51:52;3.40;99.90
54788;DHT22;59598;48.112;16.280;2023-04-15T00:54:26;3.40;99.90
54788;DHT22;59598;48.112;16.280;2023-04-15T00:57:00;3.50;99.90
54788;DHT22;59598;48.112;16.280;2023-04-15T00:59:33;3.50;99.90
54788;DHT22;59598;48.112;16.280;2023-04-15T01:02:05;3.50;99.90
54788;DHT22;59598;48.112;16.280;2023-04-15T01:04:39;3.40;99.90
54788;DHT22;59598;48.112;16.280;2023-04-15T01:07:13;3.50;99.90
54788;DHT22;59598;48.112;16.280;2023-04-15T01:09:44;3.50;99.90
54788;DHT22;59598;48.112;16.280;2023-04-15T01:12:18;3.50;99.90
54788;DHT22;59598;48.112;16.280;2023-04-15T01:14:50;3.50;99.90
54788;DHT22;59598;48.112;16.280;2023-04-15T01:17:28;3.50;99.90
54788;DHT22;59598;48.112;16.280;2023-04-15T01:20:02;3.60;99.90
54788;DHT22;59598;48.112;16.280;2023-04-15T01:22:33;3.70;99.90
54788;DHT22;59598;48.112;16.280;2023-04-15T01:25:15;3.70;99.90
54788;DHT22;59598;48.112;16.280;2023-04-15T01:27:47;3.70;99.90
54788;DHT22;59598;48.112;16.280;2023-04-15T01:30:21;3.70;99.90
54788;DHT22;59598;48.112;16.280;2023-04-15T01:32:54;3.80;99.90
54788;DHT22;59598;48.112;16.280;2023-04-15T01:35:31;3.80;99.90
54788;DHT22;59598;48.112;16.280;2023-04-15T01:38:11;3.80;99.90
54788;DHT22;59598;48.112;16.280;2023-04-15T01:40:47;3.90;99.90
54788;DHT22;59598;48.112;16.280;2023-04-15T01:43:20;3.80;99.90
54788;DHT22;59598;48.112;16.280;2023-04-15T01:45:53;3.80;99.90
54788;DHT22;59598;48.112;16.280;2023-04-15T01:48:25;3.70;99.90
54788;DHT22;59598;48.112;16.280;2023-04-15T01:50:57;3.70;99.90
54788;DHT22;59598;48.112;16.280;2023-04-15T01:53:30;3.80;99.90
54788;DHT22;59598;48.112;16.280;2023-04-15T01:56:02;3.80;99.90
54788;DHT22;59598;48.112;16.280;2023-04-15T01:58:34;3.80;99.90
54788;DHT22;59598;48.112;16.280;2023-04-15T02:01:08;3.80;99.90
54788;DHT22;59598;48.112;16.280;2023-04-15T02:03:43;3.80;99.90
54788;DHT22;59598;48.112;16.280;2023-04-15T02:06:17;3.90;99.90
54788;DHT22;59598;48.112;16.280;2023-04-15T02:08:54;4.00;99.90
54788;DHT22;59598;48.112;16.280;2023-04-15T02:11:33;3.90;99.90
54788;DHT22;59598;48.112;16.280;2023-04-15T02:14:08;3.90;99.90
54788;DHT22;59598;48.112;16.280;2023-04-15T02:16:42;3.90;99.90
54788;DHT22;59598;48.112;16.280;2023-04-15T02:19:13;4.00;99.90
54788;DHT22;59598;48.112;16.280;2023-04-15T02:21:45;4.00;99.90
54788;DHT22;59598;48.112;16.280;2023-04-15T02:24:19;4.00;99.90
54788;DHT22;59598;48.112;16.280;2023-04-15T02:26:53;4.10;99.90
54788;DHT22;59598;48.112;16.280;2023-04-15T02:29:25;4.10;99.90
54788;DHT22;59598;48.112;16.280;2023-04-15T02:31:57;4.10;99.90
54788;DHT22;59598;48.112;16.280;2023-04-15T02:34:28;4.10;99.90
54788;DHT22;59598;48.112;16.280;2023-04-15T02:37:01;4.00;99.90
54788;DHT22;59598;48.112;16.280;2023-04-15T02:39:33;4.00;99.90
54788;DHT22;59598;48.112;16.280;2023-04-15T02:42:04;4.00;99.90
54788;DHT22;59598;48.112;16.280;2023-04-15T02:44:38;4.10;99.90
54788;DHT22;59598;48.112;16.280;2023-04-15T02:47:09;4.20;99.90
54788;DHT22;59598;48.112;16.280;2023-04-15T02:49:41;4.20;99.90
54788;DHT22;59598;48.112;16.280;2023-04-15T02:52:12;4.20;99.90
54788;DHT22;59598;48.112;16.280;2023-04-15T02:54:50;4.20;99.90
54788;DHT22;59598;48.112;16.280;2023-04-15T02:57:24;4.30;99.90
54788;DHT22;59598;48.112;16.280;2023-04-15T03:00:09;4.40;99.90
54788;DHT22;59598;48.112;16.280;2023-04-15T03:02:44;4.50;99.90
54788;DHT22;59598;48.112;16.280;2023-04-15T03:05:16;4.50;99.90
54788;DHT22;59598;48.112;16.280;2023-04-15T03:07:50;4.50;99.90
54788;DHT22;59598;48.112;16.280;2023-04-15T03:10:24;4.50;99.90
54788;DHT22;59598;48.112;16.280;2023-04-15T03:13:00;4.40;99.90
54788;DHT22;59598;48.112;16.280;2023-04-15T03:15:32;4.40;99.90
54788;DHT22;59598;48.112;16.280;2023-04-15T03:18:08;4.40;99.90
54788;DHT22;59598;48.112;16.280;2023-04-15T03:20:42;4.30;99.90
54788;DHT22;59598;48.112;16.280;2023-04-15T03:23:16;4.30;99.90
54788;DHT22;59598;48.112;16.280;2023-04-15T03:25:47;4.30;99.90
54788;DHT22;59598;48.112;16.280;2023-04-15T03:28:21;4.30;99.90
54788;DHT22;59598;48.112;16.280;2023-04-15T03:30:52;4.30;99.90
54788;DHT22;59598;48.112;16.280;2023-04-15T03:33:23;4.20;99.90
54788;DHT22;59598;48.112;16.280;2023-04-15T03:35:57;4.30;99.90
54788;DHT22;59598;48.112;16.280;2023-04-15T03:38:28;4.30;99.90
54788;DHT22;59598;48.112;16.280;2023-04-15T03:41:07;4.40;99.90
54788;DHT22;59598;48.112;16.280;2023-04-15T03:43:41;4.40;99.90
54788;DHT22;59598;48.112;16.280;2023-04-15T03:46:15;4.40;99.90
54788;DHT22;59598;48.112;16.280;2023-04-15T03:48:47;4.40;99.90
54788;DHT22;59598;48.112;16.280;2023-04-15T03:51:19;4.50;99.90
54788;DHT22;59598;48.112;16.280;2023-04-15T03:53:50;4.50;99.90
54788;DHT22;59598;48.112;16.280;2023-04-15T03:56:24;4.60;99.90
54788;DHT22;59598;48.112;16.280;2023-04-15T03:58:57;4.60;99.90
54788;DHT22;59598;48.112;16.280;2023-04-15T04:01:31;4.60;99.90
54788;DHT22;59598;48.112;16.280;2023-04-15T04:04:02;4.70;99.90
54788;DHT22;59598;48.112;16.280;2023-04-15T04:06:37;4.70;99.90
54788;DHT22;59598;48.112;16.280;2023-04-15T04:09:11;4.80;99.90
54788;DHT22;59598;48.112;16.280;2023-04-15T04:11:44;4.70;99.90
54788;DHT22;59598;48.112;16.280;2023-04-15T04:14:16;4.70;99.90
54788;DHT22;59598;48.112;16.280;2023-04-15T04:16:49;4.60;99.90
54788;DHT22;59598;48.112;16.280;2023-04-15T04:19:23;4.70;99.90
54788;DHT22;59598;48.112;16.280;2023-04-15T04:21:56;4.70;99.90
54788;DHT22;59598;48.112;16.280;2023-04-15T04:24:34;4.70;99.90
54788;DHT22;59598;48.112;16.280;2023-04-15T04:27:05;4.60;99.90
54788;DHT22;59598;48.112;16.280;2023-04-15T04:29:39;4.70;99.90
54788;DHT22;59598;48.112;16.280;2023-04-15T04:32:10;4.70;99.90
54788;DHT22;59598;48.112;16.280;2023-04-15T04:34:41;4.60;99.90
54788;DHT22;59598;48.112;16.280;2023-04-15T04:37:15;4.50;99.90
54788;DHT22;59598;48.112;16.280;2023-04-15T04:39:49;4.50;99.90
54788;DHT22;59598;48.112;16.280;2023-04-15T04:42:24;4.60;99.90
54788;DHT22;59598;48.112;16.280;2023-04-15T04:44:58;4.50;99.90
54788;DHT22;59598;48.112;16.280;2023-04-15T04:47:29;4.50;99.90
54788;DHT22;59598;48.112;16.280;2023-04-15T04:50:03;4.60;99.90
54788;DHT22;59598;48.112;16.280;2023-04-15T04:52:37;4.70;99.90
54788;DHT22;59598;48.112;16.280;2023-04-15T04:55:08;4.80;99.90
54788;DHT22;59598;48.112;16.280;2023-04-15T04:57:43;4.90;99.90
54788;DHT22;59598;48.112;16.280;2023-04-15T05:00:14;4.90;99.90
54788;DHT22;59598;48.112;16.280;2023-04-15T05:02:48;4.80;99.90
54788;DHT22;59598;48.112;16.280;2023-04-15T05:05:19;4.90;99.90
54788;DHT22;59598;48.112;16.280;2023-04-15T05:07:52;5.10;99.90
54788;DHT22;59598;48.112;16.280;2023-04-15T05:10:26;5.10;99.90
54788;DHT22;59598;48.112;16.280;2023-04-15T05:12:57;5.20;99.90
54788;DHT22;59598;48.112;16.280;2023-04-15T05:15:31;5.20;99.90
54788;DHT22;59598;48.112;16.280;2023-04-15T05:18:04;5.20;99.90
54788;DHT22;59598;48.112;16.280;2023-04-15T05:20:38;5.20;99.90
54788;DHT22;59598;48.112;16.280;2023-04-15T05:23:12;5.20;99.90
54788;DHT22;59598;48.112;16.280;2023-04-15T05:25:45;5.30;99.90
54788;DHT22;59598;48.112;16.280;2023-04-15T05:28:22;5.30;99.90
54788;DHT22;59598;48.112;16.280;2023-04-15T05:30:53;5.40;99.90
54788;DHT22;59598;48.112;16.280;2023-04-15T05:33:24;5.40;99.90
54788;DHT22;59598;48.112;16.280;2023-04-15T05:35:59;5.50;99.90
54788;DHT22;59598;48.112;16.280;2023-04-15T05:38:33;5.60;99.90
54788;DHT22;59598;48.112;16.280;2023-04-15T05:41:04;5.70;99.90
54788;DHT22;59598;48.112;16.280;2023-04-15T05:43:35;5.70;99.90
54788;DHT22;59598;48.112;16.280;2023-04-15T05:46:09;5.90;99.90
54788;DHT22;59598;48.112;16.280;2023-04-15T05:48:42;6.00;99.90
54788;DHT22;59598;48.112;16.280;2023-04-15T05:51:16;6.10;99.90
54788;DHT22;59598;48.112;16.280;2023-04-15T05:53:47;6.20;99.90
54788;DHT22;59598;48.112;16.280;2023-04-15T05:56:21;6.30;99.90
54788;DHT22;59598;48.112;16.280;2023-04-15T05:58:52;6.30;99.90
54788;DHT22;59598;48.112;16.280;2023-04-15T06:01:27;6.40;99.90
54788;DHT22;59598;48.112;16.280;2023-04-15T06:03:58;6.40;99.90
54788;DHT22;59598;48.112;16.280;2023-04-15T06:06:34;6.60;99.90
54788;DHT22;59598;48.112;16.280;2023-04-15T06:09:05;6.60;99.90
54788;DHT22;59598;48.112;16.280;2023-04-15T06:11:39;6.60;99.90
54788;DHT22;59598;48.112;16.280;2023-04-15T06:14:11;6.60;99.90
54788;DHT22;59598;48.112;16.280;2023-04-15T06:16:47;6.60;99.90
54788;DHT22;59598;48.112;16.280;2023-04-15T06:19:24;6.80;99.90
54788;DHT22;59598;48.112;16.280;2023-04-15T06:21:56;6.90;99.90
54788;DHT22;59598;48.112;16.280;2023-04-15T06:24:34;6.70;99.90
54788;DHT22;59598;48.112;16.280;2023-04-15T06:27:07;6.70;99.90
54788;DHT22;59598;48.112;16.280;2023-04-15T06:29:38;6.90;99.90
54788;DHT22;59598;48.112;16.280;2023-04-15T06:32:09;7.00;99.90
54788;DHT22;59598;48.112;16.280;2023-04-15T06:34:44;7.00;99.90
54788;DHT22;59598;48.112;16.280;2023-04-15T06:37:15;7.00;99.90
54788;DHT22;59598;48.112;16.280;2023-04-15T06:39:49;7.00;99.90
54788;DHT22;59598;48.112;16.280;2023-04-15T06:42:22;7.10;99.90
54788;DHT22;59598;48.112;16.280;2023-04-15T06:44:56;7.30;99.90
54788;DHT22;59598;48.112;16.280;2023-04-15T06:47:29;7.40;99.90
54788;DHT22;59598;48.112;16.280;2023-04-15T06:50:01;7.50;99.90
54788;DHT22;59598;48.112;16.280;2023-04-15T06:52:34;7.50;99.90
54788;DHT22;59598;48.112;16.280;2023-04-15T06:55:06;7.60;99.90
54788;DHT22;59598;48.112;16.280;2023-04-15T06:57:42;7.60;99.90
54788;DHT22;59598;48.112;16.280;2023-04-15T07:00:13;7.60;99.90
54788;DHT22;59598;48.112;16.280;2023-04-15T07:02:45;7.60;99.90
54788;DHT22;59598;48.112;16.280;2023-04-15T07:05:17;7.70;99.90
54788;DHT22;59598;48.112;16.280;2023-04-15T07:07:48;7.60;99.90
54788;DHT22;59598;48.112;16.280;2023-04-15T07:10:25;7.70;99.90
54788;DHT22;59598;48.112;16.280;2023-04-15T07:13:04;7.70;99.90
54788;DHT22;59598;48.112;16.280;2023-04-15T07:15:38;7.80;99.90
54788;DHT22;59598;48.112;16.280;2023-04-15T07:18:10;7.80;99.90
54788;DHT22;59598;48.112;16.280;2023-04-15T07:20:41;7.90;99.90
54788;DHT22;59598;48.112;16.280;2023-04-15T07:23:13;8.00;99.90
54788;DHT22;59598;48.112;16.280;2023-04-15T07:25:44;8.10;99.90
54788;DHT22;59598;48.112;16.280;2023-04-15T07:28:18;8.20;99.90
54788;DHT22;59598;48.112;16.280;2023-04-15T07:30:55;8.40;99.90
54788;DHT22;59598;48.112;16.280;2023-04-15T07:33:27;8.30;99.90
54788;DHT22;59598;48.112;16.280;2023-04-15T07:36:00;8.00;99.90
54788;DHT22;59598;48.112;16.280;2023-04-15T07:38:33;8.10;99.90
54788;DHT22;59598;48.112;16.280;2023-04-15T07:41:04;8.00;99.90
54788;DHT22;59598;48.112;16.280;2023-04-15T07:43:36;8.10;99.90
54788;DHT22;59598;48.112;16.280;2023-04-15T07:46:12;8.10;99.90
54788;DHT22;59598;48.112;16.280;2023-04-15T07:48:46;7.90;99.90
54788;DHT22;59598;48.112;16.280;2023-04-15T07:51:20;8.00;99.90
54788;DHT22;59598;48.112;16.280;2023-04-15T07:53:51;8.10;99.90
54788;DHT22;59598;48.112;16.280;2023-04-15T07:56:25;7.80;99.90
54788;DHT22;59598;48.112;16.280;2023-04-15T07:58:57;7.80;99.90
54788;DHT22;59598;48.112;16.280;2023-04-15T08:01:34;7.60;99.90
54788;DHT22;59598;48.112;16.280;2023-04-15T08:04:11;7.50;99.90
54788;DHT22;59598;48.112;16.280;2023-04-15T08:06:42;7.50;99.90
54788;DHT22;59598;48.112;16.280;2023-04-15T08:09:13;7.40;99.90
54788;DHT22;59598;48.112;16.280;2023-04-15T08:11:48;7.40;99.90
54788;DHT22;59598;48.112;16.280;2023-04-15T08:14:23;7.40;99.90
54788;DHT22;59598;48.112;16.280;2023-04-15T08:16:57;7.50;99.90
54788;DHT22;59598;48.112;16.280;2023-04-15T08:19:30;7.40;99.90
54788;DHT22;59598;48.112;16.280;2023-04-15T08:22:06;7.40;99.90
54788;DHT22;59598;48.112;16.280;2023-04-15T08:24:43;7.50;99.90
54788;DHT22;59598;48.112;16.280;2023-04-15T08:27:17;7.60;99.90
54788;DHT22;59598;48.112;16.280;2023-04-15T08:29:51;7.60;99.90
54788;DHT22;59598;48.112;16.280;2023-04-15T08:32:25;7.50;99.90
54788;DHT22;59598;48.112;16.280;2023-04-15T08:34:57;7.40;99.90
54788;DHT22;59598;48.112;16.280;2023-04-15T08:37:32;7.40;99.90
54788;DHT22;59598;48.112;16.280;2023-04-15T08:40:07;7.30;99.90
54788;DHT22;59598;48.112;16.280;2023-04-15T08:42:47;7.30;99.90
54788;DHT22;59598;48.112;16.280;2023-04-15T08:45:21;7.40;99.90
54788;DHT22;59598;48.112;16.280;2023-04-15T08:47:56;7.70;99.90
54788;DHT22;59598;48.112;16.280;2023-04-15T08:50:31;7.80;99.90
54788;DHT22;59598;48.112;16.280;2023-04-15T08:53:02;7.70;99.90
54788;DHT22;59598;48.112;16.280;2023-04-15T08:55:41;8.00;99.90
54788;DHT22;59598;48.112;16.280;2023-04-15T08:58:15;8.20;99.90
54788;DHT22;59598;48.112;16.280;2023-04-15T09:00:46;8.20;99.90
54788;DHT22;59598;48.112;16.280;2023-04-15T09:03:19;8.40;99.90
54788;DHT22;59598;48.112;16.280;2023-04-15T09:05:52;8.40;99.90
54788;DHT22;59598;48.112;16.280;2023-04-15T09:08:24;8.20;99.90
54788;DHT22;59598;48.112;16.280;2023-04-15T09:10:55;8.10;99.90
54788;DHT22;59598;48.112;16.280;2023-04-15T09:13:29;8.20;99.90
54788;DHT22;59598;48.112;16.280;2023-04-15T09:16:01;8.20;99.90
54788;DHT22;59598;48.112;16.280;2023-04-15T09:18:36;8.10;99.90
54788;DHT22;59598;48.112;16.280;2023-04-15T09:21:15;8.00;99.90
54788;DHT22;59598;48.112;16.280;2023-04-15T09:24:00;8.10;99.90
54788;DHT22;59598;48.112;16.280;2023-04-15T09:26:36;8.40;99.90
54788;DHT22;59598;48.112;16.280;2023-04-15T09:29:13;8.40;99.90
54788;DHT22;59598;48.112;16.280;2023-04-15T09:31:44;8.30;99.90
54788;DHT22;59598;48.112;16.280;2023-04-15T09:34:16;8.20;99.90
54788;DHT22;59598;48.112;16.280;2023-04-15T09:36:51;8.20;99.90
54788;DHT22;59598;48.112;16.280;2023-04-15T09:39:23;8.40;99.90
54788;DHT22;59598;48.112;16.280;2023-04-15T09:42:07;8.10;99.90
54788;DHT22;59598;48.112;16.280;2023-04-15T09:44:46;8.00;99.90
54788;DHT22;59598;48.112;16.280;2023-04-15T09:47:30;8.30;99.90
54788;DHT22;59598;48.112;16.280;2023-04-15T09:50:04;8.40;99.90
54788;DHT22;59598;48.112;16.280;2023-04-15T09:52:42;8.40;99.90
54788;DHT22;59598;48.112;16.280;2023-04-15T09:55:20;8.20;99.90
54788;DHT22;59598;48.112;16.280;2023-04-15T09:57:54;8.10;99.90
54788;DHT22;59598;48.112;16.280;2023-04-15T10:00:32;7.90;99.90
54788;DHT22;59598;48.112;16.280;2023-04-15T10:03:04;8.30;99.90
54788;DHT22;59598;48.112;16.280;2023-04-15T10:05:37;8.30;99.90
54788;DHT22;59598;48.112;16.280;2023-04-15T10:08:09;7.90;99.90
54788;DHT22;59598;48.112;16.280;2023-04-15T10:10:41;8.00;99.90
54788;DHT22;59598;48.112;16.280;2023-04-15T10:13:20;8.00;99.90
54788;DHT22;59598;48.112;16.280;2023-04-15T10:16:05;8.30;99.90
54788;DHT22;59598;48.112;16.280;2023-04-15T10:18:46;8.60;99.90
54788;DHT22;59598;48.112;16.280;2023-04-15T10:21:20;8.70;99.90
54788;DHT22;59598;48.112;16.280;2023-04-15T10:23:57;9.00;99.90
54788;DHT22;59598;48.112;16.280;2023-04-15T10:26:33;8.90;99.90
54788;DHT22;59598;48.112;16.280;2023-04-15T10:29:07;9.00;99.90
54788;DHT22;59598;48.112;16.280;2023-04-15T10:31:41;9.20;99.90
54788;DHT22;59598;48.112;16.280;2023-04-15T10:34:13;9.50;99.90
54788;DHT22;59598;48.112;16.280;2023-04-15T10:36:48;9.60;99.90
54788;DHT22;59598;48.112;16.280;2023-04-15T10:42:17;9.40;99.90
54788;DHT22;59598;48.112;16.280;2023-04-15T10:44:55;8.90;99.90
54788;DHT22;59598;48.112;16.280;2023-04-15T10:47:31;8.70;99.90
54788;DHT22;59598;48.112;16.280;2023-04-15T10:50:02;8.30;99.90
54788;DHT22;59598;48.112;16.280;2023-04-15T10:52:41;8.00;99.90
54788;DHT22;59598;48.112;16.280;2023-04-15T10:55:15;8.00;99.90
54788;DHT22;59598;48.112;16.280;2023-04-15T10:57:58;8.00;99.90
54788;DHT22;59598;48.112;16.280;2023-04-15T11:00:36;8.20;99.90
54788;DHT22;59598;48.112;16.280;2023-04-15T11:03:14;8.50;99.90
54788;DHT22;59598;48.112;16.280;2023-04-15T11:05:52;8.80;99.90
54788;DHT22;59598;48.112;16.280;2023-04-15T11:08:53;9.10;99.90
54788;DHT22;59598;48.112;16.280;2023-04-15T11:12:04;9.40;99.90
54788;DHT22;59598;48.112;16.280;2023-04-15T11:14:40;10.10;99.90
54788;DHT22;59598;48.112;16.280;2023-04-15T11:17:13;10.00;99.90
54788;DHT22;59598;48.112;16.280;2023-04-15T11:19:44;10.00;99.90
54788;DHT22;59598;48.112;16.280;2023-04-15T11:22:15;9.70;99.90
54788;DHT22;59598;48.112;16.280;2023-04-15T11:24:48;10.10;99.90
54788;DHT22;59598;48.112;16.280;2023-04-15T11:27:24;11.00;99.90
54788;DHT22;59598;48.112;16.280;2023-04-15T11:29:56;10.90;99.90
54788;DHT22;59598;48.112;16.280;2023-04-15T11:32:27;10.50;99.90
54788;DHT22;59598;48.112;16.280;2023-04-15T11:35:00;10.30;99.90
54788;DHT22;59598;48.112;16.280;2023-04-15T11:37:32;10.60;99.90
54788;DHT22;59598;48.112;16.280;2023-04-15T11:40:04;10.70;99.90
54788;DHT22;59598;48.112;16.280;2023-04-15T11:42:38;10.40;90.60
54788;DHT22;59598;48.112;16.280;2023-04-15T11:45:14;9.80;99.90
54788;DHT22;59598;48.112;16.280;2023-04-15T11:47:45;9.30;99.90
54788;DHT22;59598;48.112;16.280;2023-04-15T11:50:21;9.30;99.90
54788;DHT22;59598;48.112;16.280;2023-04-15T11:52:57;9.50;99.90
54788;DHT22;59598;48.112;16.280;2023-04-15T11:55:52;10.20;99.90
54788;DHT22;59598;48.112;16.280;2023-04-15T11:58:24;11.00;99.90
54788;DHT22;59598;48.112;16.280;2023-04-15T12:01:00;11.10;33.70
54788;DHT22;59598;48.112;16.280;2023-04-15T12:03:41;10.50;1.00
54788;DHT22;59598;48.112;16.280;2023-04-15T12:06:18;9.80;99.90
54788;DHT22;59598;48.112;16.280;2023-04-15T12:11:44;8.80;99.90
54788;DHT22;59598;48.112;16.280;2023-04-15T12:16:52;8.80;99.90
54788;DHT22;59598;48.112;16.280;2023-04-15T12:19:35;9.10;99.90
54788;DHT22;59598;48.112;16.280;2023-04-15T12:22:11;9.50;99.90
54788;DHT22;59598;48.112;16.280;2023-04-15T12:24:54;9.70;99.90
54788;DHT22;59598;48.112;16.280;2023-04-15T12:27:27;9.80;99.90
54788;DHT22;59598;48.112;16.280;2023-04-15T12:30:04;10.30;99.90
54788;DHT22;59598;48.112;16.280;2023-04-15T12:32:42;10.60;99.90
54788;DHT22;59598;48.112;16.280;2023-04-15T12:35:13;11.00;99.90
54788;DHT22;59598;48.112;16.280;2023-04-15T12:37:45;10.80;1.00
54788;DHT22;59598;48.112;16.280;2023-04-15T12:40:16;10.50;1.00
54788;DHT22;59598;48.112;16.280;2023-04-15T12:42:53;10.50;1.00
54788;DHT22;59598;48.112;16.280;2023-04-15T12:45:28;11.10;1.00
54788;DHT22;59598;48.112;16.280;2023-04-15T12:48:04;11.50;1.00
54788;DHT22;59598;48.112;16.280;2023-04-15T12:50:35;11.10;1.00
54788;DHT22;59598;48.112;16.280;2023-04-15T12:53:08;11.20;1.00
54788;DHT22;59598;48.112;16.280;2023-04-15T12:55:42;11.10;99.90
54788;DHT22;59598;48.112;16.280;2023-04-15T12:58:13;11.10;99.90
54788;DHT22;59598;48.112;16.280;2023-04-15T13:00:57;11.00;99.90
54788;DHT22;59598;48.112;16.280;2023-04-15T13:03:31;11.20;99.90
54788;DHT22;59598;48.112;16.280;2023-04-15T13:06:02;11.60;99.90
54788;DHT22;59598;48.112;16.280;2023-04-15T13:08:37;11.60;99.90
54788;DHT22;59598;48.112;16.280;2023-04-15T13:11:08;11.70;99.90
54788;DHT22;59598;48.112;16.280;2023-04-15T13:13:40;11.70;1.00
54788;DHT22;59598;48.112;16.280;2023-04-15T13:16:11;12.10;1.00
54788;DHT22;59598;48.112;16.280;2023-04-15T13:18:45;12.60;1.00
54788;DHT22;59598;48.112;16.280;2023-04-15T13:21:17;12.80;1.00
54788;DHT22;59598;48.112;16.280;2023-04-15T13:23:49;13.30;1.00
54788;DHT22;59598;48.112;16.280;2023-04-15T13:26:21;12.80;1.00
54788;DHT22;59598;48.112;16.280;2023-04-15T13:28:52;12.70;1.00
54788;DHT22;59598;48.112;16.280;2023-04-15T13:31:26;13.20;99.90
54788;DHT22;59598;48.112;16.280;2023-04-15T13:33:57;14.50;1.00
54788;DHT22;59598;48.112;16.280;2023-04-15T13:36:29;15.20;99.90
54788;DHT22;59598;48.112;16.280;2023-04-15T13:39:04;14.70;99.90
54788;DHT22;59598;48.112;16.280;2023-04-15T13:41:39;14.80;1.00
54788;DHT22;59598;48.112;16.280;2023-04-15T13:44:13;15.50;1.00
54788;DHT22;59598;48.112;16.280;2023-04-15T13:46:46;14.10;99.90
54788;DHT22;59598;48.112;16.280;2023-04-15T13:49:22;13.80;1.00
54788;DHT22;59598;48.112;16.280;2023-04-15T13:51:53;13.70;99.90
54788;DHT22;59598;48.112;16.280;2023-04-15T13:54:32;13.60;1.00
54788;DHT22;59598;48.112;16.280;2023-04-15T13:57:07;13.50;1.00
54788;DHT22;59598;48.112;16.280;2023-04-15T13:59:39;13.50;1.00
54788;DHT22;59598;48.112;16.280;2023-04-15T14:02:13;13.80;28.50
54788;DHT22;59598;48.112;16.280;2023-04-15T14:04:44;14.00;1.00
54788;DHT22;59598;48.112;16.280;2023-04-15T14:07:23;14.70;1.00
54788;DHT22;59598;48.112;16.280;2023-04-15T14:09:55;16.00;1.00
54788;DHT22;59598;48.112;16.280;2023-04-15T14:12:26;16.50;99.90
54788;DHT22;59598;48.112;16.280;2023-04-15T14:15:02;16.50;99.90
54788;DHT22;59598;48.112;16.280;2023-04-15T14:17:33;15.10;99.90
54788;DHT22;59598;48.112;16.280;2023-04-15T14:20:09;14.70;1.00
54788;DHT22;59598;48.112;16.280;2023-04-15T14:22:40;13.60;1.00
54788;DHT22;59598;48.112;16.280;2023-04-15T14:25:14;12.90;1.00
54788;DHT22;59598;48.112;16.280;2023-04-15T14:27:45;11.90;7.00
54788;DHT22;59598;48.112;16.280;2023-04-15T14:30:16;12.00;1.00
54788;DHT22;59598;48.112;16.280;2023-04-15T14:32:50;11.70;1.00
54788;DHT22;59598;48.112;16.280;2023-04-15T14:35:28;11.30;99.90
54788;DHT22;59598;48.112;16.280;2023-04-15T14:38:02;10.80;99.90
54788;DHT22;59598;48.112;16.280;2023-04-15T14:40:36;11.00;1.00
54788;DHT22;59598;48.112;16.280;2023-04-15T14:43:12;11.40;1.00
54788;DHT22;59598;48.112;16.280;2023-04-15T14:45:43;11.50;1.00
54788;DHT22;59598;48.112;16.280;2023-04-15T14:48:15;11.10;1.00
54788;DHT22;59598;48.112;16.280;2023-04-15T14:50:46;10.90;1.00
54788;DHT22;59598;48.112;16.280;2023-04-15T14:53:17;10.20;1.00
54788;DHT22;59598;48.112;16.280;2023-04-15T14:55:51;10.10;1.00
54788;DHT22;59598;48.112;16.280;2023-04-15T14:58:27;9.80;1.00
54788;DHT22;59598;48.112;16.280;2023-04-15T15:00:58;9.90;1.00
54788;DHT22;59598;48.112;16.280;2023-04-15T15:03:30;10.00;99.90
54788;DHT22;59598;48.112;16.280;2023-04-15T15:06:01;10.10;99.90
54788;DHT22;59598;48.112;16.280;2023-04-15T15:08:35;10.00;99.90
54788;DHT22;59598;48.112;16.280;2023-04-15T15:11:10;9.70;99.90
54788;DHT22;59598;48.112;16.280;2023-04-15T15:13:41;9.70;1.00
54788;DHT22;59598;48.112;16.280;2023-04-15T15:16:12;9.40;1.00
54788;DHT22;59598;48.112;16.280;2023-04-15T15:18:44;9.20;1.00
54788;DHT22;59598;48.112;16.280;2023-04-15T15:21:16;9.20;1.00
54788;DHT22;59598;48.112;16.280;2023-04-15T15:23:47;9.10;1.00
54788;DHT22;59598;48.112;16.280;2023-04-15T15:26:20;9.10;10.10
54788;DHT22;59598;48.112;16.280;2023-04-15T15:28:52;9.20;99.90
54788;DHT22;59598;48.112;16.280;2023-04-15T15:31:23;9.30;1.00
54788;DHT22;59598;48.112;16.280;2023-04-15T15:33:54;9.40;1.00
54788;DHT22;59598;48.112;16.280;2023-04-15T15:36:29;9.50;1.00
54788;DHT22;59598;48.112;16.280;2023-04-15T15:39:01;9.50;1.00
54788;DHT22;59598;48.112;16.280;2023-04-15T15:41:35;9.60;1.00
54788;DHT22;59598;48.112;16.280;2023-04-15T15:44:07;9.60;1.00
54788;DHT22;59598;48.112;16.280;2023-04-15T15:46:39;9.50;1.00
54788;DHT22;59598;48.112;16.280;2023-04-15T15:49:13;9.90;1.00
54788;DHT22;59598;48.112;16.280;2023-04-15T15:51:46;10.00;1.00
54788;DHT22;59598;48.112;16.280;2023-04-15T15:54:19;10.00;1.00
54788;DHT22;59598;48.112;16.280;2023-04-15T15:56:53;10.00;1.00
54788;DHT22;59598;48.112;16.280;2023-04-15T15:59:24;9.70;1.00
54788;DHT22;59598;48.112;16.280;2023-04-15T16:01:55;9.40;1.00
54788;DHT22;59598;48.112;16.280;2023-04-15T16:04:27;9.20;1.00
54788;DHT22;59598;48.112;16.280;2023-04-15T16:06:58;9.10;1.00
54788;DHT22;59598;48.112;16.280;2023-04-15T16:09:30;9.00;99.90
54788;DHT22;59598;48.112;16.280;2023-04-15T16:12:02;8.90;99.90
54788;DHT22;59598;48.112;16.280;2023-04-15T16:14:33;9.00;99.90
54788;DHT22;59598;48.112;16.280;2023-04-15T16:17:05;9.00;1.00
54788;DHT22;59598;48.112;16.280;2023-04-15T16:19:36;9.00;1.00